Time;durP1;ratioP1;P1;durP2;ratioP2;P2;SDS_P1;SDS_P2;PMS_P1;PMS_P2;Temp;Humidity;BMP_temperature;BMP_pressure;BME280_temperature;BME280_humidity;BME280_pressure;Samples;Min_cycle;Max_cycle;Signal;HPM_P1;HPM_P2
2022/03/19 00:00:19;;;;;;;21.10;4.85;;;;;;;;;;5112607;28;20031;-80
2022/03/19 00:02:45;;;;;;;19.15;4.68;;;;;;;;;;5114751;28;20027;-80
2022/03/19 00:05:11;;;;;;;18.35;4.38;;;;;;;;;;5113709;28;20107;-81
2022/03/19 00:07:40;;;;;;;17.85;4.90;;;;;;;;;;5114294;28;20418;-81
2022/03/19 00:10:08;;;;;;;13.05;4.40;;;;;;;;;;5114160;28;20020;-81
2022/03/19 00:12:35;;;;;;;16.20;4.18;;;;;;;;;;5114075;28;20149;-80
2022/03/19 00:15:01;;;;;;;19.48;5.22;;;;;;;;;;5113868;28;20487;-80
2022/03/19 00:17:27;;;;;;;20.70;5.13;;;;;;;;;;5112791;28;20389;-80
2022/03/19 00:19:53;;;;;;;19.13;6.00;;;;;;;;;;5113853;28;20457;-80
2022/03/19 00:22:19;;;;;;;23.63;4.55;;;;;;;;;;5113881;28;20031;-80
2022/03/19 00:24:45;;;;;;;21.67;5.95;;;;;;;;;;5113523;28;20107;-81
2022/03/19 00:27:11;;;;;;;13.48;4.07;;;;;;;;;;5113900;28;20521;-80
2022/03/19 00:29:37;;;;;;;23.73;4.28;;;;;;;;;;5114000;28;20488;-81
2022/03/19 00:32:03;;;;;;;14.18;4.00;;;;;;;;;;5112394;28;20147;-80
2022/03/19 00:34:29;;;;;;;17.60;4.25;;;;;;;;;;5113695;28;20353;-80
2022/03/19 00:36:56;;;;;;;13.90;3.72;;;;;;;;;;5112243;28;20408;-80
2022/03/19 00:39:22;;;;;;;20.30;4.85;;;;;;;;;;5113773;28;20076;-80
2022/03/19 00:41:48;;;;;;;25.60;4.65;;;;;;;;;;5114071;28;20023;-80
2022/03/19 00:44:14;;;;;;;22.20;5.10;;;;;;;;;;5113810;28;20035;-80
2022/03/19 00:46:40;;;;;;;20.75;4.55;;;;;;;;;;5113569;28;20430;-80
2022/03/19 00:49:06;;;;;;;22.23;4.35;;;;;;;;;;5113758;28;20027;-80
2022/03/19 00:51:36;;;;;;;17.17;4.85;;;;;;;;;;5113645;28;20106;-80
2022/03/19 00:54:02;;;;;;;25.73;4.82;;;;;;;;;;5113770;28;20114;-80
2022/03/19 00:56:28;;;;;;;22.30;4.75;;;;;;;;;;5113476;28;20052;-80
2022/03/19 00:58:55;;;;;;;20.35;4.22;;;;;;;;;;5113839;28;20028;-80
2022/03/19 01:01:21;;;;;;;17.95;4.00;;;;;;;;;;5113502;28;20035;-80
2022/03/19 01:03:47;;;;;;;16.17;3.88;;;;;;;;;;5113788;28;20031;-80
2022/03/19 01:06:13;;;;;;;14.25;3.95;;;;;;;;;;5113451;28;20035;-80
2022/03/19 01:08:39;;;;;;;14.93;3.92;;;;;;;;;;5113487;28;20433;-80
2022/03/19 01:11:05;;;;;;;20.52;3.88;;;;;;;;;;5113304;28;20395;-81
2022/03/19 01:13:31;;;;;;;20.15;3.80;;;;;;;;;;5113504;28;20042;-80
2022/03/19 01:15:57;;;;;;;18.00;4.00;;;;;;;;;;5114363;28;20052;-80
2022/03/19 01:18:23;;;;;;;23.20;4.38;;;;;;;;;;5117656;28;20024;-80
2022/03/19 01:20:50;;;;;;;15.30;4.32;;;;;;;;;;5099564;28;20073;-80
2022/03/19 01:23:16;;;;;;;19.23;4.80;;;;;;;;;;5096680;28;20043;-80
2022/03/19 01:25:42;;;;;;;23.35;4.43;;;;;;;;;;5096792;28;20764;-81
2022/03/19 01:28:08;;;;;;;27.45;4.60;;;;;;;;;;5095557;28;20039;-80
2022/03/19 01:30:34;;;;;;;21.48;4.50;;;;;;;;;;5096916;28;20458;-80
2022/03/19 01:33:00;;;;;;;16.75;4.28;;;;;;;;;;5097067;28;20024;-80
2022/03/19 01:35:26;;;;;;;16.98;4.55;;;;;;;;;;5096794;28;20046;-80
2022/03/19 01:37:52;;;;;;;20.63;4.70;;;;;;;;;;5096578;28;20031;-80
2022/03/19 01:40:19;;;;;;;21.23;4.65;;;;;;;;;;5096959;28;20024;-80
2022/03/19 01:42:46;;;;;;;23.33;4.85;;;;;;;;;;5095150;28;20040;-80
2022/03/19 01:45:13;;;;;;;25.17;5.20;;;;;;;;;;5096568;28;20145;-80
2022/03/19 01:47:40;;;;;;;18.52;4.85;;;;;;;;;;5104409;28;20020;-80
2022/03/19 01:50:06;;;;;;;22.23;4.82;;;;;;;;;;5117059;28;20457;-80
2022/03/19 01:52:32;;;;;;;19.77;4.88;;;;;;;;;;5117050;28;20016;-80
2022/03/19 01:54:59;;;;;;;24.52;6.38;;;;;;;;;;5116850;28;20044;-80
2022/03/19 01:57:27;;;;;;;21.67;4.25;;;;;;;;;;5116828;28;20028;-80
2022/03/19 01:59:55;;;;;;;22.55;4.63;;;;;;;;;;5117055;28;20430;-80
2022/03/19 02:02:22;;;;;;;21.38;5.28;;;;;;;;;;5116680;28;20024;-80
2022/03/19 02:04:49;;;;;;;24.77;5.10;;;;;;;;;;5116516;28;20031;-80
2022/03/19 02:07:15;;;;;;;20.20;4.68;;;;;;;;;;5116405;28;20023;-80
2022/03/19 02:09:41;;;;;;;27.58;5.60;;;;;;;;;;5116579;28;20035;-80
2022/03/19 02:12:08;;;;;;;22.95;4.70;;;;;;;;;;5116530;28;20015;-80
2022/03/19 02:14:34;;;;;;;22.05;5.05;;;;;;;;;;5114812;28;20027;-80
2022/03/19 02:17:01;;;;;;;23.73;5.00;;;;;;;;;;5116531;28;20019;-80
2022/03/19 02:19:27;;;;;;;20.05;5.55;;;;;;;;;;5110078;28;20028;-80
2022/03/19 02:21:53;;;;;;;17.50;5.22;;;;;;;;;;5096139;28;20024;-80
2022/03/19 02:27:04;;;;;;;22.55;5.03;;;;;;;;;;5095230;28;20035;-80
2022/03/19 02:29:31;;;;;;;18.17;4.80;;;;;;;;;;5095753;28;20024;-80
2022/03/19 02:32:15;;;;;;;23.38;6.47;;;;;;;;;;5095826;28;20026;-80
2022/03/19 02:34:41;;;;;;;20.05;5.18;;;;;;;;;;5095688;28;20139;-80
2022/03/19 02:37:07;;;;;;;21.50;4.50;;;;;;;;;;5095247;28;20051;-80
2022/03/19 02:39:33;;;;;;;22.52;4.95;;;;;;;;;;5095176;28;20035;-80
2022/03/19 02:42:02;;;;;;;34.72;6.70;;;;;;;;;;5095706;28;20084;-80
2022/03/19 02:44:28;;;;;;;18.77;4.95;;;;;;;;;;5095224;28;20028;-80
2022/03/19 02:46:55;;;;;;;22.65;5.90;;;;;;;;;;5097121;28;20020;-80
2022/03/19 02:49:22;;;;;;;25.02;5.40;;;;;;;;;;5114324;28;20028;-80
2022/03/19 02:51:49;;;;;;;29.40;6.10;;;;;;;;;;5115921;28;20016;-80
2022/03/19 02:54:19;;;;;;;21.20;6.25;;;;;;;;;;5115434;28;20361;-80
2022/03/19 02:56:45;;;;;;;20.13;5.32;;;;;;;;;;5115534;28;20520;-80
2022/03/19 02:59:18;;;;;;;24.38;5.60;;;;;;;;;;5115534;28;20039;-80
2022/03/19 03:01:52;;;;;;;20.83;5.68;;;;;;;;;;5115715;28;20023;-80
2022/03/19 03:04:18;;;;;;;17.98;4.88;;;;;;;;;;5115618;28;20108;-80
2022/03/19 03:06:45;;;;;;;20.00;4.45;;;;;;;;;;5115474;28;20026;-80
2022/03/19 03:09:11;;;;;;;18.85;5.78;;;;;;;;;;5115121;28;20073;-80
2022/03/19 03:11:38;;;;;;;26.20;5.43;;;;;;;;;;5113776;28;20311;-80
2022/03/19 03:14:08;;;;;;;20.13;6.15;;;;;;;;;;5115187;28;20030;-79
2022/03/19 03:16:34;;;;;;;23.13;5.72;;;;;;;;;;5115645;28;20048;-80
2022/03/19 03:19:05;;;;;;;22.98;5.15;;;;;;;;;;5114945;28;20031;-80
2022/03/19 03:21:31;;;;;;;19.27;5.85;;;;;;;;;;5114639;28;20447;-80
2022/03/19 03:23:57;;;;;;;22.80;5.13;;;;;;;;;;5114848;28;20106;-80
2022/03/19 03:26:23;;;;;;;17.50;5.30;;;;;;;;;;5114642;28;20027;-80
2022/03/19 03:28:50;;;;;;;21.15;5.50;;;;;;;;;;5114736;28;20103;-80
2022/03/19 03:31:16;;;;;;;23.15;6.80;;;;;;;;;;5115009;28;20068;-80
2022/03/19 03:33:42;;;;;;;25.98;5.85;;;;;;;;;;5114496;28;20487;-80
2022/03/19 03:36:08;;;;;;;15.88;5.45;;;;;;;;;;5114494;28;20076;-80
2022/03/19 03:38:34;;;;;;;28.15;5.78;;;;;;;;;;5114097;28;20039;-81
2022/03/19 03:41:00;;;;;;;20.05;6.10;;;;;;;;;;5114447;28;20490;-80
2022/03/19 03:43:26;;;;;;;19.10;6.40;;;;;;;;;;5114756;28;20027;-80
2022/03/19 03:45:53;;;;;;;16.20;5.35;;;;;;;;;;5114537;28;20088;-80
2022/03/19 03:48:19;;;;;;;21.73;5.40;;;;;;;;;;5101232;28;20055;-80
2022/03/19 03:50:45;;;;;;;24.55;5.32;;;;;;;;;;5094341;28;20453;-80
2022/03/19 03:53:11;;;;;;;21.48;5.57;;;;;;;;;;5093671;28;20478;-80
2022/03/19 03:55:38;;;;;;;22.77;6.05;;;;;;;;;;5093620;28;20073;-80
2022/03/19 03:58:04;;;;;;;17.20;6.15;;;;;;;;;;5093794;28;20119;-80
2022/03/19 04:00:31;;;;;;;20.23;6.68;;;;;;;;;;5093461;28;20359;-80
2022/03/19 04:02:57;;;;;;;27.08;6.38;;;;;;;;;;5094119;28;20458;-80
2022/03/19 04:05:24;;;;;;;29.92;6.75;;;;;;;;;;5093903;28;20031;-80
2022/03/19 04:07:50;;;;;;;23.25;6.32;;;;;;;;;;5094176;28;20021;-80
2022/03/19 04:10:17;;;;;;;19.08;6.75;;;;;;;;;;5093778;28;20428;-80
2022/03/19 04:12:43;;;;;;;30.73;7.43;;;;;;;;;;5092678;28;20028;-80
2022/03/19 04:15:09;;;;;;;20.83;6.82;;;;;;;;;;5094008;28;20492;-80
2022/03/19 04:17:35;;;;;;;19.95;7.00;;;;;;;;;;5093738;28;20028;-80
2022/03/19 04:20:03;;;;;;;22.75;7.05;;;;;;;;;;5093663;28;20020;-80
2022/03/19 04:22:36;;;;;;;31.75;7.00;;;;;;;;;;5109582;28;20423;-80
2022/03/19 04:25:03;;;;;;;23.42;6.68;;;;;;;;;;5093464;28;20024;-80
2022/03/19 04:27:29;;;;;;;21.35;6.57;;;;;;;;;;5093611;28;20024;-80
2022/03/19 04:29:56;;;;;;;24.45;6.90;;;;;;;;;;5093839;28;20043;-80
2022/03/19 04:32:22;;;;;;;24.13;7.80;;;;;;;;;;5093637;28;20520;-80
2022/03/19 04:34:48;;;;;;;21.27;7.18;;;;;;;;;;5093270;28;20026;-80
2022/03/19 04:37:15;;;;;;;22.90;7.15;;;;;;;;;;5093977;28;20059;-80
2022/03/19 04:39:41;;;;;;;25.70;7.40;;;;;;;;;;5093437;28;20028;-80
2022/03/19 04:42:07;;;;;;;29.73;7.20;;;;;;;;;;5093377;28;20039;-80
2022/03/19 04:44:33;;;;;;;27.80;7.72;;;;;;;;;;5093301;28;20466;-80
2022/03/19 04:46:59;;;;;;;20.48;6.97;;;;;;;;;;5093141;28;20051;-80
2022/03/19 04:49:26;;;;;;;21.73;7.13;;;;;;;;;;5108738;28;20415;-80
2022/03/19 04:51:52;;;;;;;24.60;8.07;;;;;;;;;;5093031;28;20379;-80
2022/03/19 04:54:20;;;;;;;25.60;7.72;;;;;;;;;;5093378;28;20020;-80
2022/03/19 04:56:46;;;;;;;27.55;8.10;;;;;;;;;;5092621;28;20044;-80
2022/03/19 04:59:15;;;;;;;19.95;7.43;;;;;;;;;;5092958;28;20463;-80
2022/03/19 05:01:41;;;;;;;31.35;7.47;;;;;;;;;;5093688;28;20077;-80
2022/03/19 05:04:07;;;;;;;23.92;8.40;;;;;;;;;;5093369;28;20028;-80
2022/03/19 05:06:33;;;;;;;27.58;7.95;;;;;;;;;;5108692;28;20031;-80
2022/03/19 05:11:45;;;;;;;25.10;8.05;;;;;;;;;;5093523;28;20173;-80
2022/03/19 05:14:11;;;;;;;25.48;8.20;;;;;;;;;;5093287;28;20136;-80
2022/03/19 05:16:37;;;;;;;25.42;8.15;;;;;;;;;;5093067;28;20047;-80
2022/03/19 05:19:03;;;;;;;25.02;8.02;;;;;;;;;;5092891;28;20100;-80
2022/03/19 05:21:29;;;;;;;41.78;9.38;;;;;;;;;;5093063;28;20028;-80
2022/03/19 05:23:55;;;;;;;31.17;8.52;;;;;;;;;;5093070;28;20386;-80
2022/03/19 05:26:22;;;;;;;28.77;8.20;;;;;;;;;;5093009;28;20093;-80
2022/03/19 05:28:48;;;;;;;25.50;8.52;;;;;;;;;;5093119;28;20091;-80
2022/03/19 05:31:14;;;;;;;22.20;7.72;;;;;;;;;;5092766;28;20436;-80
2022/03/19 05:36:27;;;;;;;24.30;8.30;;;;;;;;;;5093092;28;20388;-80
2022/03/19 05:38:53;;;;;;;25.17;9.10;;;;;;;;;;5092864;28;20385;-80
2022/03/19 05:41:19;;;;;;;20.55;8.40;;;;;;;;;;5092953;28;20027;-80
2022/03/19 05:43:46;;;;;;;32.35;8.57;;;;;;;;;;5092866;28;20028;-80
2022/03/19 05:46:12;;;;;;;28.65;8.45;;;;;;;;;;5092973;28;20458;-80
2022/03/19 05:48:38;;;;;;;25.80;7.63;;;;;;;;;;5108915;28;20435;-80
2022/03/19 05:51:05;;;;;;;34.20;9.27;;;;;;;;;;5112948;28;20655;-80
2022/03/19 05:53:31;;;;;;;29.35;8.43;;;;;;;;;;5113582;28;20028;-80
2022/03/19 05:55:57;;;;;;;25.08;8.60;;;;;;;;;;5112782;28;20048;-80
2022/03/19 05:58:23;;;;;;;35.60;8.23;;;;;;;;;;5113010;28;20100;-80
2022/03/19 06:00:49;;;;;;;40.83;7.93;;;;;;;;;;5113144;28;20043;-80
2022/03/19 06:03:15;;;;;;;32.30;7.95;;;;;;;;;;5114177;28;20053;-80
2022/03/19 06:05:41;;;;;;;24.23;8.20;;;;;;;;;;5116871;28;20029;-80
2022/03/19 06:08:07;;;;;;;26.67;9.05;;;;;;;;;;5116409;28;20023;-80
2022/03/19 06:10:35;;;;;;;31.92;8.30;;;;;;;;;;5116414;28;20400;-80
2022/03/19 06:13:02;;;;;;;24.65;7.95;;;;;;;;;;5116783;28;20020;-79
2022/03/19 06:15:28;;;;;;;28.58;7.75;;;;;;;;;;5116493;28;20023;-80
2022/03/19 06:17:54;;;;;;;26.52;8.68;;;;;;;;;;5116605;28;20027;-79
2022/03/19 06:20:22;;;;;;;24.40;7.68;;;;;;;;;;5102733;28;20035;-80
2022/03/19 06:22:49;;;;;;;28.65;7.55;;;;;;;;;;5095962;28;20028;-80
2022/03/19 06:25:15;;;;;;;28.45;7.22;;;;;;;;;;5095878;28;20098;-80
2022/03/19 06:27:41;;;;;;;24.85;7.45;;;;;;;;;;5095987;28;20036;-80
2022/03/19 06:30:08;;;;;;;19.13;7.50;;;;;;;;;;5095620;28;20024;-80
2022/03/19 06:32:36;;;;;;;24.33;6.95;;;;;;;;;;5095959;28;20024;-80
2022/03/19 06:35:03;;;;;;;24.52;7.43;;;;;;;;;;5095564;28;20024;-80
2022/03/19 06:37:29;;;;;;;21.73;6.95;;;;;;;;;;5095921;28;20020;-80
2022/03/19 06:39:57;;;;;;;24.85;6.80;;;;;;;;;;5095649;28;20366;-80
2022/03/19 06:42:23;;;;;;;18.83;6.78;;;;;;;;;;5096069;28;20047;-80
2022/03/19 06:44:50;;;;;;;21.17;6.53;;;;;;;;;;5095616;28;20066;-80
2022/03/19 06:47:16;;;;;;;23.55;6.72;;;;;;;;;;5099773;28;20027;-80
2022/03/19 06:49:42;;;;;;;18.02;6.70;;;;;;;;;;5114718;28;20035;-80
2022/03/19 06:52:10;;;;;;;22.65;5.97;;;;;;;;;;5115685;28;20350;-80
2022/03/19 06:54:36;;;;;;;21.60;6.35;;;;;;;;;;5115805;28;20430;-80
2022/03/19 06:57:02;;;;;;;19.02;6.07;;;;;;;;;;5115518;28;20052;-80
2022/03/19 06:59:28;;;;;;;23.40;5.60;;;;;;;;;;5115540;28;20023;-80
2022/03/19 07:01:55;;;;;;;13.38;5.05;;;;;;;;;;5115292;28;20033;-80
2022/03/19 07:04:21;;;;;;;23.63;5.68;;;;;;;;;;5115958;28;20098;-80
2022/03/19 07:06:47;;;;;;;24.05;6.30;;;;;;;;;;5115196;28;20027;-80
2022/03/19 07:09:13;;;;;;;13.05;5.50;;;;;;;;;;5115494;28;20093;-80
2022/03/19 07:11:39;;;;;;;18.48;6.13;;;;;;;;;;5115402;28;20022;-80
2022/03/19 07:14:05;;;;;;;16.17;5.30;;;;;;;;;;5115444;28;20103;-80
2022/03/19 07:16:31;;;;;;;16.92;4.53;;;;;;;;;;5115222;28;20477;-80
2022/03/19 07:18:57;;;;;;;15.50;4.95;;;;;;;;;;5115304;28;20063;-80
2022/03/19 07:21:24;;;;;;;16.00;4.70;;;;;;;;;;5115656;28;20039;-81
2022/03/19 07:23:50;;;;;;;24.13;4.85;;;;;;;;;;5115051;28;20042;-81
2022/03/19 07:26:16;;;;;;;11.75;4.55;;;;;;;;;;5115164;28;20016;-81
2022/03/19 07:28:43;;;;;;;18.63;4.85;;;;;;;;;;5113435;28;20088;-81
2022/03/19 07:31:09;;;;;;;18.77;4.70;;;;;;;;;;5114789;28;20465;-81
2022/03/19 07:33:35;;;;;;;17.00;4.80;;;;;;;;;;5114634;28;20805;-81
2022/03/19 07:36:02;;;;;;;21.65;4.95;;;;;;;;;;5113325;28;20519;-81
2022/03/19 07:38:28;;;;;;;16.02;4.40;;;;;;;;;;5114658;28;20058;-81
2022/03/19 07:43:38;;;;;;;16.65;4.28;;;;;;;;;;5114744;28;20047;-81
2022/03/19 07:46:04;;;;;;;19.83;4.55;;;;;;;;;;5114830;28;20152;-81
2022/03/19 07:48:30;;;;;;;22.00;4.50;;;;;;;;;;5099283;28;20453;-81
2022/03/19 07:50:56;;;;;;;13.23;3.97;;;;;;;;;;5094218;28;20035;-81
2022/03/19 07:53:23;;;;;;;16.75;3.80;;;;;;;;;;5094169;28;20024;-81
2022/03/19 07:55:50;;;;;;;16.90;4.28;;;;;;;;;;5092450;28;20040;-81
2022/03/19 07:58:17;;;;;;;13.25;4.07;;;;;;;;;;5094245;28;20111;-81
2022/03/19 08:00:43;;;;;;;14.32;4.20;;;;;;;;;;5094129;28;20547;-81
2022/03/19 08:03:09;;;;;;;22.05;4.05;;;;;;;;;;5092796;28;20070;-81
2022/03/19 08:05:35;;;;;;;18.75;4.60;;;;;;;;;;5092418;28;20382;-81
2022/03/19 08:08:03;;;;;;;15.43;4.18;;;;;;;;;;5092641;28;20056;-81
2022/03/19 08:10:29;;;;;;;13.52;3.65;;;;;;;;;;5094279;28;20374;-81
2022/03/19 08:13:03;;;;;;;13.85;3.70;;;;;;;;;;5093728;28;20438;-81
2022/03/19 08:15:30;;;;;;;15.75;4.40;;;;;;;;;;5093971;28;20024;-81
2022/03/19 08:17:56;;;;;;;17.85;3.85;;;;;;;;;;5118632;27;20047;-81
2022/03/19 08:20:22;;;;;;;15.30;4.32;;;;;;;;;;5104768;27;20034;-81
2022/03/19 08:22:48;;;;;;;15.95;4.60;;;;;;;;;;5107890;27;20533;-81
2022/03/19 08:25:15;;;;;;;15.77;4.45;;;;;;;;;;5113272;28;20067;-81
2022/03/19 08:27:41;;;;;;;16.75;4.22;;;;;;;;;;5112660;28;20076;-81
2022/03/19 08:30:07;;;;;;;13.48;3.75;;;;;;;;;;5113736;28;20369;-81
2022/03/19 08:32:34;;;;;;;21.75;3.60;;;;;;;;;;5113949;28;20066;-82
2022/03/19 08:35:01;;;;;;;11.73;3.25;;;;;;;;;;5112173;28;20358;-81
2022/03/19 08:37:27;;;;;;;16.70;3.90;;;;;;;;;;5124779;27;20027;-81
2022/03/19 08:42:38;;;;;;;12.23;3.58;;;;;;;;;;5126921;27;20039;-82
2022/03/19 08:45:05;;;;;;;16.98;4.40;;;;;;;;;;5134291;27;20015;-81
2022/03/19 08:47:31;;;;;;;10.77;3.03;;;;;;;;;;5120435;27;20410;-81
2022/03/19 08:49:57;;;;;;;10.45;2.83;;;;;;;;;;5130146;27;20019;-81
2022/03/19 08:52:24;;;;;;;13.38;3.17;;;;;;;;;;5134275;27;20023;-82
2022/03/19 08:54:50;;;;;;;17.70;4.18;;;;;;;;;;5134185;27;20023;-81
2022/03/19 08:57:16;;;;;;;12.02;2.60;;;;;;;;;;5128064;27;20051;-81
2022/03/19 08:59:42;;;;;;;15.93;2.58;;;;;;;;;;5134002;28;20030;-83
2022/03/19 09:02:08;;;;;;;10.73;2.70;;;;;;;;;;5134246;28;20030;-81
2022/03/19 09:04:34;;;;;;;9.88;2.22;;;;;;;;;;5133573;28;20027;-82
2022/03/19 09:07:00;;;;;;;7.75;2.13;;;;;;;;;;5134029;28;20023;-82
2022/03/19 09:09:26;;;;;;;11.02;2.47;;;;;;;;;;5133843;28;20019;-80
2022/03/19 09:11:53;;;;;;;11.63;2.10;;;;;;;;;;5133863;28;20023;-80
2022/03/19 09:14:20;;;;;;;9.75;1.95;;;;;;;;;;5132872;27;20075;-77
2022/03/19 09:16:46;;;;;;;10.30;2.50;;;;;;;;;;5133746;27;20038;-81
2022/03/19 09:19:12;;;;;;;7.30;1.75;;;;;;;;;;5129484;28;20051;-77
2022/03/19 09:21:38;;;;;;;7.28;2.00;;;;;;;;;;5112887;28;20024;-82
2022/03/19 09:24:04;;;;;;;8.93;1.95;;;;;;;;;;5113174;28;20041;-83
2022/03/19 09:26:30;;;;;;;7.20;2.00;;;;;;;;;;5113189;28;20028;-81
2022/03/19 09:28:57;;;;;;;5.28;1.80;;;;;;;;;;5112951;28;20377;-81
2022/03/19 09:31:23;;;;;;;7.47;2.05;;;;;;;;;;5113451;28;20015;-82
2022/03/19 09:33:53;;;;;;;7.80;1.90;;;;;;;;;;5113396;28;20415;-80
2022/03/19 09:36:19;;;;;;;13.38;2.15;;;;;;;;;;5113368;28;20093;-79
2022/03/19 09:38:45;;;;;;;10.68;1.67;;;;;;;;;;5116339;28;20031;-77
2022/03/19 09:41:11;;;;;;;6.90;1.77;;;;;;;;;;5117066;28;20081;-81
2022/03/19 09:43:37;;;;;;;9.80;1.80;;;;;;;;;;5117047;28;20438;-80
2022/03/19 09:46:04;;;;;;;6.72;1.75;;;;;;;;;;5117093;28;20027;-80
2022/03/19 09:48:30;;;;;;;5.93;1.65;;;;;;;;;;5115771;28;20019;-81
2022/03/19 09:50:57;;;;;;;7.97;1.52;;;;;;;;;;5116929;28;20094;-81
2022/03/19 09:53:24;;;;;;;5.45;1.30;;;;;;;;;;5117013;28;20011;-79
2022/03/19 09:55:53;;;;;;;5.25;1.52;;;;;;;;;;5116988;28;20032;-80
2022/03/19 09:58:19;;;;;;;4.18;1.42;;;;;;;;;;5116834;28;20473;-78
2022/03/19 10:00:45;;;;;;;5.05;1.42;;;;;;;;;;5115602;28;20191;-76
2022/03/19 10:03:12;;;;;;;7.45;1.80;;;;;;;;;;5115489;28;20377;-77
2022/03/19 10:08:41;;;;;;;9.18;1.70;;;;;;;;;;5115447;28;20067;-79
2022/03/19 10:11:08;;;;;;;7.65;2.35;;;;;;;;;;5115447;28;20392;-77
2022/03/19 10:13:37;;;;;;;2.95;1.30;;;;;;;;;;5115331;28;20628;-77
2022/03/19 10:16:03;;;;;;;3.95;1.30;;;;;;;;;;5115171;28;20470;-77
2022/03/19 10:18:30;;;;;;;4.93;1.13;;;;;;;;;;5108704;28;20139;-77
2022/03/19 10:21:00;;;;;;;7.05;1.58;;;;;;;;;;5121481;27;20067;-77
2022/03/19 10:23:30;;;;;;;7.13;1.35;;;;;;;;;;5116391;28;20507;-79
2022/03/19 10:25:56;;;;;;;7.45;1.40;;;;;;;;;;5116096;28;20031;-78
2022/03/19 10:28:28;;;;;;;5.45;1.45;;;;;;;;;;5115908;28;20068;-78
2022/03/19 10:30:54;;;;;;;9.63;1.65;;;;;;;;;;5115939;28;20043;-79
2022/03/19 10:33:23;;;;;;;7.13;1.30;;;;;;;;;;5115619;28;20030;-79
2022/03/19 10:35:49;;;;;;;5.20;1.27;;;;;;;;;;5115819;28;20080;-79
2022/03/19 10:38:20;;;;;;;8.20;1.20;;;;;;;;;;5115504;28;20024;-80
2022/03/19 10:40:51;;;;;;;7.40;1.85;;;;;;;;;;5115403;28;20100;-78
2022/03/19 10:43:18;;;;;;;6.40;1.42;;;;;;;;;;5115422;28;20024;-79
2022/03/19 10:45:45;;;;;;;5.20;1.05;;;;;;;;;;5115763;28;20024;-78
2022/03/19 10:48:12;;;;;;;6.20;1.60;;;;;;;;;;5114745;28;20098;-79
2022/03/19 10:50:41;;;;;;;6.38;1.52;;;;;;;;;;5114706;28;20026;-79
2022/03/19 10:53:07;;;;;;;7.13;1.58;;;;;;;;;;5114689;28;20076;-77
2022/03/19 10:55:34;;;;;;;8.23;1.55;;;;;;;;;;5113494;28;20035;-80
2022/03/19 10:58:00;;;;;;;5.93;1.40;;;;;;;;;;5115381;28;20458;-79
2022/03/19 11:00:26;;;;;;;7.07;1.50;;;;;;;;;;5114791;28;20028;-78
2022/03/19 11:02:54;;;;;;;5.20;1.50;;;;;;;;;;5114434;28;20032;-78
2022/03/19 11:05:22;;;;;;;4.90;1.85;;;;;;;;;;5114489;28;20027;-79
2022/03/19 11:07:49;;;;;;;5.20;1.60;;;;;;;;;;5115070;28;20437;-83
2022/03/19 11:10:16;;;;;;;4.95;1.75;;;;;;;;;;5097354;28;20370;-78
2022/03/19 11:12:50;;;;;;;6.28;1.60;;;;;;;;;;5114611;28;20499;-77
2022/03/19 11:15:16;;;;;;;14.50;1.98;;;;;;;;;;5096211;28;20528;-78
2022/03/19 11:17:45;;;;;;;15.52;2.20;;;;;;;;;;5114859;28;20102;-80
2022/03/19 11:20:13;;;;;;;12.88;1.52;;;;;;;;;;5102907;28;20038;-78
2022/03/19 11:22:40;;;;;;;3.75;1.30;;;;;;;;;;5094064;28;20032;-79
2022/03/19 11:25:12;;;;;;;5.65;1.65;;;;;;;;;;5093667;28;20351;-80
2022/03/19 11:27:39;;;;;;;8.23;2.00;;;;;;;;;;5094272;28;20099;-79
2022/03/19 11:30:06;;;;;;;6.30;1.25;;;;;;;;;;5076177;28;20267;-79
2022/03/19 11:32:32;;;;;;;7.75;1.30;;;;;;;;;;5114577;27;20068;-80
2022/03/19 11:34:59;;;;;;;5.03;1.35;;;;;;;;;;5132992;27;20031;-80
2022/03/19 11:37:44;;;;;;;6.15;1.42;;;;;;;;;;5125969;27;20453;-80
2022/03/19 11:40:13;;;;;;;9.77;1.38;;;;;;;;;;5123018;27;20027;-80
2022/03/19 11:42:55;;;;;;;5.78;1.35;;;;;;;;;;5123198;27;20149;-79
2022/03/19 11:45:21;;;;;;;3.58;1.05;;;;;;;;;;5120677;27;20019;-80
2022/03/19 11:47:47;;;;;;;7.60;1.90;;;;;;;;;;5115663;27;20024;-80
2022/03/19 11:50:26;;;;;;;7.97;1.30;;;;;;;;;;5125115;27;20023;-80
2022/03/19 11:52:55;;;;;;;5.22;1.15;;;;;;;;;;5111117;27;20058;-80
2022/03/19 11:55:29;;;;;;;7.88;1.17;;;;;;;;;;5124336;27;20023;-79
2022/03/19 11:58:03;;;;;;;5.78;1.10;;;;;;;;;;5114121;28;20080;-81
2022/03/19 12:00:29;;;;;;;4.15;1.20;;;;;;;;;;5113328;28;20023;-80
2022/03/19 12:03:16;;;;;;;6.10;1.20;;;;;;;;;;5113741;28;20039;-79
2022/03/19 12:05:47;;;;;;;6.28;1.08;;;;;;;;;;5114052;28;20030;-80
2022/03/19 12:08:14;;;;;;;3.50;1.00;;;;;;;;;;5113279;28;20026;-79
2022/03/19 12:11:01;;;;;;;7.47;1.50;;;;;;;;;;5113381;28;20103;-81
2022/03/19 12:13:27;;;;;;;6.13;1.40;;;;;;;;;;5116892;28;20094;-80
2022/03/19 12:15:57;;;;;;;7.65;1.17;;;;;;;;;;5113698;28;20027;-80
2022/03/19 12:18:27;;;;;;;10.45;1.30;;;;;;;;;;5113926;28;20027;-81
2022/03/19 12:21:11;;;;;;;6.07;1.20;;;;;;;;;;5106382;28;20044;-81
2022/03/19 12:23:41;;;;;;;6.15;1.10;;;;;;;;;;5114213;28;20617;-81
2022/03/19 12:26:08;;;;;;;18.52;1.60;;;;;;;;;;5113690;28;20016;-80
2022/03/19 12:28:35;;;;;;;5.43;1.10;;;;;;;;;;5113756;28;20484;-81
2022/03/19 12:31:05;;;;;;;5.32;1.00;;;;;;;;;;5113616;28;20623;-81
2022/03/19 12:33:31;;;;;;;7.10;1.35;;;;;;;;;;5113943;28;20018;-81
2022/03/19 12:35:58;;;;;;;14.77;1.40;;;;;;;;;;5113864;28;20480;-81
2022/03/19 12:38:32;;;;;;;5.63;1.20;;;;;;;;;;5113312;28;20027;-81
2022/03/19 12:43:43;;;;;;;6.53;1.38;;;;;;;;;;5113696;28;20042;-81
2022/03/19 12:46:09;;;;;;;4.45;1.05;;;;;;;;;;5113566;28;20031;-80
2022/03/19 12:48:39;;;;;;;5.55;1.25;;;;;;;;;;5113692;28;20024;-80
2022/03/19 12:51:06;;;;;;;4.57;1.17;;;;;;;;;;5113599;28;20159;-81
2022/03/19 12:53:33;;;;;;;27.75;2.15;;;;;;;;;;5113310;28;20042;-81
2022/03/19 12:56:15;;;;;;;6.00;1.25;;;;;;;;;;5113769;28;20035;-81
2022/03/19 12:58:44;;;;;;;;;;;;;;;;;;5113930;28;20045;-81
2022/03/19 13:01:14;;;;;;;4.57;1.35;;;;;;;;;;5113504;28;19903;-81
2022/03/19 13:03:41;;;;;;;4.72;1.02;;;;;;;;;;5113525;28;20020;-81
2022/03/19 13:06:08;;;;;;;7.70;1.02;;;;;;;;;;5113590;28;20088;-80
2022/03/19 13:09:03;;;;;;;5.57;1.52;;;;;;;;;;5113484;28;20481;-81
2022/03/19 13:11:40;;;;;;;4.60;1.50;;;;;;;;;;5027636;28;20042;-81
2022/03/19 13:14:06;;;;;;;11.15;1.67;;;;;;;;;;5034750;28;20080;-80
2022/03/19 13:16:33;;;;;;;13.98;1.58;;;;;;;;;;5034921;28;20041;-81
2022/03/19 13:19:00;;;;;;;8.70;1.60;;;;;;;;;;5032674;28;20037;-80
2022/03/19 13:21:27;;;;;;;5.80;1.40;;;;;;;;;;5014793;28;20556;-80
2022/03/19 13:23:54;;;;;;;12.43;1.15;;;;;;;;;;5014707;28;20022;-80
2022/03/19 13:26:21;;;;;;;8.38;1.20;;;;;;;;;;5014755;28;20105;-80
2022/03/19 13:29:10;;;;;;;5.97;0.90;;;;;;;;;;5014462;28;20041;-80
2022/03/19 13:31:45;;;;;;;7.05;2.28;;;;;;;;;;5014513;28;20026;-80
2022/03/19 13:34:17;;;;;;;4.20;1.17;;;;;;;;;;5014111;28;20065;-80
2022/03/19 13:36:48;;;;;;;6.18;1.20;;;;;;;;;;5014922;28;20117;-80
2022/03/19 13:39:28;;;;;;;5.82;1.25;;;;;;;;;;5014299;28;20034;-80
2022/03/19 13:42:02;;;;;;;7.15;1.63;;;;;;;;;;5014553;28;20045;-80
2022/03/19 13:44:29;;;;;;;4.70;1.20;;;;;;;;;;5014256;28;20057;-80
2022/03/19 13:47:14;;;;;;;6.63;1.08;;;;;;;;;;5022726;28;20040;-80
2022/03/19 13:49:45;;;;;;;6.72;1.00;;;;;;;;;;5113586;28;20020;-80
2022/03/19 13:52:27;;;;;;;6.72;1.20;;;;;;;;;;5117155;27;20373;-81
2022/03/19 13:54:55;;;;;;;;;;;;;;;;;;5117023;28;20027;-82
2022/03/19 13:57:22;;;;;;;5.93;1.10;;;;;;;;;;5108526;27;20203;-81
2022/03/19 13:59:48;;;;;;;6.57;1.23;;;;;;;;;;5127472;27;20027;-81
2022/03/19 14:02:14;;;;;;;5.03;1.40;;;;;;;;;;5128886;27;20401;-81
2022/03/19 14:04:40;;;;;;;7.25;1.85;;;;;;;;;;5114732;28;20015;-81
2022/03/19 14:07:06;;;;;;;5.82;1.20;;;;;;;;;;5116658;28;20020;-81
2022/03/19 14:09:33;;;;;;;6.43;1.38;;;;;;;;;;5116808;28;20022;-81
2022/03/19 14:11:59;;;;;;;6.03;1.25;;;;;;;;;;5104730;28;20047;-81
2022/03/19 14:14:25;;;;;;;6.95;1.20;;;;;;;;;;5098356;28;20024;-81
2022/03/19 14:16:55;;;;;;;5.32;1.40;;;;;;;;;;5122925;27;20818;-79
2022/03/19 14:19:22;;;;;;;5.28;1.15;;;;;;;;;;5114310;27;20256;-80
2022/03/19 14:21:48;;;;;;;7.40;1.25;;;;;;;;;;5129963;27;20053;-81
2022/03/19 14:24:17;;;;;;;3.20;1.10;;;;;;;;;;5092013;28;20035;-80
2022/03/19 14:26:45;;;;;;;2.92;0.88;;;;;;;;;;5096354;28;20474;-82
2022/03/19 14:29:11;;;;;;;7.07;1.10;;;;;;;;;;5117387;28;20027;-82
2022/03/19 14:31:37;;;;;;;9.27;1.20;;;;;;;;;;5116647;28;20016;-83
2022/03/19 14:34:04;;;;;;;3.83;0.80;;;;;;;;;;5116073;28;20055;-79
2022/03/19 14:36:30;;;;;;;5.28;1.30;;;;;;;;;;5117035;28;20109;-78
2022/03/19 14:38:57;;;;;;;4.13;0.95;;;;;;;;;;5119299;27;20072;-78
2022/03/19 14:41:28;;;;;;;3.38;0.98;;;;;;;;;;5131913;27;20027;-80
2022/03/19 14:43:54;;;;;;;8.45;1.40;;;;;;;;;;5136483;27;20381;-78
2022/03/19 14:46:24;;;;;;;6.20;1.23;;;;;;;;;;5137016;27;20051;-79
2022/03/19 14:48:50;;;;;;;4.75;1.02;;;;;;;;;;5101552;27;20030;-79
2022/03/19 14:51:16;;;;;;;4.35;1.20;;;;;;;;;;5096038;28;20432;-79
2022/03/19 14:53:43;;;;;;;28.58;2.53;;;;;;;;;;5098516;28;20468;-79
2022/03/19 14:56:10;;;;;;;8.95;1.25;;;;;;;;;;5114272;28;20023;-79